Time;durP1;ratioP1;P1;durP2;ratioP2;P2;SDS_P1;SDS_P2;PMS_P1;PMS_P2;Temp;Humidity;BMP_temperature;BMP_pressure;BME280_temperature;BME280_humidity;BME280_pressure;Samples;Min_cycle;Max_cycle;Signal;HPM_P1;HPM_P2
2023/06/18 00:04:25;;;;;;;15.13;3.42;;;;;;;;;;5052456;28;20024;-57
2023/06/18 00:06:52;;;;;;;16.17;3.55;;;;;;;;;;5048909;28;20029;-61
2023/06/18 00:12:20;;;;;;;9.77;2.47;;;;;;;;;;5053062;28;20032;-61
2023/06/18 00:14:45;;;;;;;8.48;3.20;;;;;;;;;;5053514;28;20025;-59
2023/06/18 00:17:11;;;;;;;7.13;2.92;;;;;;;;;;5051212;28;20549;-54
2023/06/18 00:19:37;;;;;;;8.23;2.50;;;;;;;;;;5051821;28;20397;-58
2023/06/18 00:22:02;;;;;;;11.50;3.00;;;;;;;;;;5050662;28;20031;-53
2023/06/18 00:24:28;;;;;;;13.70;3.10;;;;;;;;;;5051998;28;20041;-56
2023/06/18 00:27:12;;;;;;;9.38;3.10;;;;;;;;;;5045802;28;20026;-57
2023/06/18 00:29:40;;;;;;;10.10;2.85;;;;;;;;;;5032570;28;20030;-60
2023/06/18 00:32:07;;;;;;;9.02;2.72;;;;;;;;;;5033582;28;20056;-58
2023/06/18 00:34:53;;;;;;;7.00;2.65;;;;;;;;;;5048901;28;20036;-54
2023/06/18 00:40:21;;;;;;;7.20;2.63;;;;;;;;;;5052616;28;20567;-55
2023/06/18 00:42:48;;;;;;;9.27;2.47;;;;;;;;;;5052836;28;20056;-57
2023/06/18 00:45:14;;;;;;;6.35;2.55;;;;;;;;;;5052927;28;20037;-56
2023/06/18 00:47:44;;;;;;;7.70;2.72;;;;;;;;;;5052956;28;20055;-52
2023/06/18 00:50:14;;;;;;;;;;;;;;;;;;5053474;28;20039;-55
2023/06/18 00:56:01;;;;;;;8.50;2.80;;;;;;;;;;5052741;28;20482;-63
2023/06/18 01:01:10;;;;;;;7.95;2.60;;;;;;;;;;5053848;28;20124;-54
2023/06/18 01:03:36;;;;;;;4.78;2.58;;;;;;;;;;5054007;28;20104;-54
2023/06/18 01:06:03;;;;;;;8.32;2.55;;;;;;;;;;5053641;28;20489;-55
2023/06/18 01:08:32;;;;;;;13.93;2.72;;;;;;;;;;5053916;28;20029;-55
2023/06/18 01:11:05;;;;;;;5.75;2.30;;;;;;;;;;5053893;28;20509;-55
2023/06/18 01:13:33;;;;;;;5.93;2.67;;;;;;;;;;5053623;28;20540;-52
2023/06/18 01:16:05;;;;;;;6.10;2.78;;;;;;;;;;5053600;28;20113;-52
2023/06/18 01:18:39;;;;;;;4.80;2.83;;;;;;;;;;5052807;28;20021;-56
2023/06/18 01:21:10;;;;;;;6.20;2.55;;;;;;;;;;5053514;28;20036;-55
2023/06/18 01:23:50;;;;;;;4.75;2.53;;;;;;;;;;5053370;28;20283;-55
2023/06/18 01:26:21;;;;;;;5.43;2.40;;;;;;;;;;5053407;28;20063;-54
2023/06/18 01:28:52;;;;;;;8.40;2.55;;;;;;;;;;5053202;28;20490;-55
2023/06/18 01:31:22;;;;;;;7.25;3.03;;;;;;;;;;5052984;28;20461;-56
2023/06/18 01:33:53;;;;;;;6.68;2.67;;;;;;;;;;5053568;28;20424;-53
2023/06/18 01:36:40;;;;;;;6.18;2.47;;;;;;;;;;5053165;28;20036;-55
2023/06/18 01:39:35;;;;;;;6.10;2.40;;;;;;;;;;5053040;28;20021;-54
2023/06/18 01:42:19;;;;;;;6.50;2.75;;;;;;;;;;5052957;28;20056;-57
2023/06/18 01:44:49;;;;;;;4.20;2.50;;;;;;;;;;5052978;28;20025;-59
2023/06/18 01:47:17;;;;;;;4.10;2.20;;;;;;;;;;5052915;28;20013;-56
2023/06/18 01:49:45;;;;;;;8.05;3.15;;;;;;;;;;5051636;28;20393;-51
2023/06/18 01:52:15;;;;;;;5.47;2.08;;;;;;;;;;5052842;28;20024;-59
2023/06/18 01:54:44;;;;;;;5.40;2.53;;;;;;;;;;5053091;28;20055;-52
2023/06/18 01:57:10;;;;;;;5.20;2.30;;;;;;;;;;5052703;28;20079;-55
2023/06/18 01:59:39;;;;;;;5.30;2.58;;;;;;;;;;5052716;28;20025;-53
2023/06/18 02:02:05;;;;;;;5.55;2.78;;;;;;;;;;5052700;28;20104;-51
2023/06/18 02:04:31;;;;;;;5.45;2.22;;;;;;;;;;5052637;28;20111;-51
2023/06/18 02:13:02;;;;;;;5.90;2.47;;;;;;;;;;5052466;28;20082;-50
2023/06/18 02:18:11;;;;;;;4.10;2.35;;;;;;;;;;5052771;28;20385;-61
2023/06/18 02:20:55;;;;;;;5.45;2.67;;;;;;;;;;5052352;28;20037;-59
2023/06/18 02:23:40;;;;;;;4.47;2.60;;;;;;;;;;5052694;28;20487;-57
2023/06/18 02:26:08;;;;;;;5.72;2.90;;;;;;;;;;5052300;28;20116;-58
2023/06/18 02:28:52;;;;;;;4.10;2.30;;;;;;;;;;5052324;28;20025;-61
2023/06/18 02:34:27;;;;;;;5.30;2.50;;;;;;;;;;5052259;28;20091;-58
2023/06/18 02:36:54;;;;;;;5.97;2.90;;;;;;;;;;5052536;28;20032;-56
2023/06/18 02:39:20;;;;;;;3.50;2.45;;;;;;;;;;5052466;28;20112;-57
2023/06/18 02:41:46;;;;;;;3.88;2.60;;;;;;;;;;5052415;28;20108;-55
2023/06/18 02:44:12;;;;;;;4.18;2.30;;;;;;;;;;5052244;28;20024;-56
2023/06/18 02:46:38;;;;;;;5.38;2.65;;;;;;;;;;5052057;28;20036;-53
2023/06/18 02:49:03;;;;;;;3.80;2.45;;;;;;;;;;5052421;28;20021;-50
2023/06/18 02:51:29;;;;;;;6.05;2.45;;;;;;;;;;5052111;28;20032;-53
2023/06/18 02:53:55;;;;;;;2.92;2.30;;;;;;;;;;5052007;28;20461;-54
2023/06/18 02:56:21;;;;;;;4.97;2.63;;;;;;;;;;5052082;28;20017;-52
2023/06/18 02:58:55;;;;;;;5.35;2.95;;;;;;;;;;5052104;28;20021;-55
2023/06/18 03:01:23;;;;;;;5.70;2.47;;;;;;;;;;5052328;28;20036;-54
2023/06/18 03:03:49;;;;;;;5.38;2.53;;;;;;;;;;5052292;28;20537;-56
2023/06/18 03:06:15;;;;;;;7.15;2.60;;;;;;;;;;5052181;28;20384;-53
2023/06/18 03:08:41;;;;;;;5.15;2.22;;;;;;;;;;5052048;28;20456;-56
2023/06/18 03:11:06;;;;;;;4.28;2.67;;;;;;;;;;5052245;28;20017;-55
2023/06/18 03:13:32;;;;;;;4.35;2.20;;;;;;;;;;5051827;28;20108;-58
2023/06/18 03:15:58;;;;;;;3.67;2.28;;;;;;;;;;5051834;28;20036;-62
2023/06/18 03:18:23;;;;;;;4.78;3.00;;;;;;;;;;5050996;28;20029;-59
2023/06/18 03:20:49;;;;;;;3.00;2.30;;;;;;;;;;5051796;28;20028;-59
2023/06/18 03:23:15;;;;;;;6.63;2.70;;;;;;;;;;5052137;28;20071;-58
2023/06/18 03:25:41;;;;;;;5.68;2.50;;;;;;;;;;5052037;28;20104;-52
2023/06/18 03:28:07;;;;;;;5.32;2.55;;;;;;;;;;5051733;28;20025;-53
2023/06/18 03:30:32;;;;;;;4.38;2.60;;;;;;;;;;5052035;28;20063;-51
2023/06/18 03:33:01;;;;;;;2.80;2.20;;;;;;;;;;5051535;28;20492;-53
2023/06/18 03:35:27;;;;;;;2.72;2.20;;;;;;;;;;5052017;28;20388;-52
2023/06/18 03:37:52;;;;;;;4.10;2.55;;;;;;;;;;5050408;28;20028;-57
2023/06/18 03:40:18;;;;;;;3.97;2.75;;;;;;;;;;5051933;28;20120;-52
2023/06/18 03:42:44;;;;;;;3.65;2.47;;;;;;;;;;5053517;28;20032;-54
2023/06/18 03:45:10;;;;;;;3.63;2.53;;;;;;;;;;5055513;28;20070;-57
2023/06/18 03:47:35;;;;;;;3.10;2.45;;;;;;;;;;5055173;28;20052;-56
2023/06/18 03:50:01;;;;;;;5.10;2.58;;;;;;;;;;5055212;28;20021;-53
2023/06/18 03:52:27;;;;;;;4.57;2.30;;;;;;;;;;5054970;28;20025;-58
2023/06/18 03:54:52;;;;;;;3.30;2.60;;;;;;;;;;5055090;28;20106;-59
2023/06/18 03:57:18;;;;;;;2.65;2.30;;;;;;;;;;5055060;28;20040;-55
2023/06/18 03:59:43;;;;;;;3.20;2.47;;;;;;;;;;5055209;28;20453;-54
2023/06/18 04:02:09;;;;;;;4.80;2.40;;;;;;;;;;5055287;28;20436;-51
2023/06/18 04:04:35;;;;;;;5.55;2.80;;;;;;;;;;5054877;28;20068;-54
2023/06/18 04:07:01;;;;;;;3.05;2.38;;;;;;;;;;5055153;28;20032;-56
2023/06/18 04:09:26;;;;;;;4.28;2.22;;;;;;;;;;5054865;28;20070;-54
2023/06/18 04:11:53;;;;;;;3.58;2.22;;;;;;;;;;5054786;28;20020;-57
2023/06/18 04:14:20;;;;;;;4.10;2.42;;;;;;;;;;5054660;28;20029;-51
2023/06/18 04:16:46;;;;;;;3.42;2.53;;;;;;;;;;5054745;28;20028;-50
2023/06/18 04:19:11;;;;;;;2.67;2.20;;;;;;;;;;5054591;28;20107;-57
2023/06/18 04:24:40;;;;;;;2.83;2.30;;;;;;;;;;5054658;28;20032;-54
2023/06/18 04:27:27;;;;;;;4.40;2.42;;;;;;;;;;5054495;28;20021;-51
2023/06/18 04:29:52;;;;;;;4.55;2.40;;;;;;;;;;5053120;28;20025;-54
2023/06/18 04:32:18;;;;;;;3.63;2.28;;;;;;;;;;5054156;28;20041;-51
2023/06/18 04:34:43;;;;;;;4.43;2.33;;;;;;;;;;5053396;28;20055;-53
2023/06/18 04:37:09;;;;;;;2.95;2.30;;;;;;;;;;5054321;28;20025;-54
2023/06/18 04:39:35;;;;;;;2.90;1.98;;;;;;;;;;5054252;28;20473;-57
2023/06/18 04:42:00;;;;;;;2.78;2.28;;;;;;;;;;5054252;28;20444;-54
2023/06/18 04:44:26;;;;;;;4.85;2.60;;;;;;;;;;5054227;28;20029;-53
2023/06/18 04:46:52;;;;;;;2.65;2.10;;;;;;;;;;5052904;28;20023;-64
2023/06/18 04:49:18;;;;;;;3.50;2.33;;;;;;;;;;5054367;28;20063;-53
2023/06/18 04:51:44;;;;;;;2.78;2.13;;;;;;;;;;5054297;28;20053;-53
2023/06/18 04:54:11;;;;;;;4.18;2.10;;;;;;;;;;5053643;28;20384;-60
2023/06/18 04:56:36;;;;;;;2.92;1.98;;;;;;;;;;5054516;28;20365;-55
2023/06/18 04:59:02;;;;;;;3.00;2.13;;;;;;;;;;5054002;28;20073;-58
2023/06/18 05:01:28;;;;;;;3.75;2.55;;;;;;;;;;5054062;28;20044;-53
2023/06/18 05:03:53;;;;;;;3.35;2.17;;;;;;;;;;5053823;28;20032;-60
2023/06/18 05:06:19;;;;;;;3.65;2.30;;;;;;;;;;5053671;28;20021;-53
2023/06/18 05:08:46;;;;;;;2.60;2.40;;;;;;;;;;5053783;28;20028;-54
2023/06/18 05:11:12;;;;;;;2.88;2.42;;;;;;;;;;5053666;28;20021;-57
2023/06/18 05:13:38;;;;;;;3.28;2.60;;;;;;;;;;5053821;28;20108;-54
2023/06/18 05:16:04;;;;;;;2.92;2.10;;;;;;;;;;5053572;28;20437;-56
2023/06/18 05:18:30;;;;;;;3.40;2.20;;;;;;;;;;5053508;28;20029;-52
2023/06/18 05:20:55;;;;;;;2.55;2.20;;;;;;;;;;5053692;28;20029;-56
2023/06/18 05:23:21;;;;;;;2.55;2.35;;;;;;;;;;5053431;28;20396;-57
2023/06/18 05:25:47;;;;;;;3.63;2.53;;;;;;;;;;5053628;28;20036;-54
2023/06/18 05:28:12;;;;;;;4.03;2.22;;;;;;;;;;5053395;28;20465;-53
2023/06/18 05:30:38;;;;;;;2.78;2.40;;;;;;;;;;5053232;28;20115;-55
2023/06/18 05:33:03;;;;;;;3.70;2.00;;;;;;;;;;5053084;28;20037;-57
2023/06/18 05:35:29;;;;;;;3.65;2.13;;;;;;;;;;5053186;28;20469;-51
2023/06/18 05:37:55;;;;;;;4.38;2.30;;;;;;;;;;5053249;28;20614;-64
2023/06/18 05:40:20;;;;;;;2.78;2.25;;;;;;;;;;5053034;28;20029;-52
2023/06/18 05:42:46;;;;;;;3.13;2.28;;;;;;;;;;5053135;28;20029;-54
2023/06/18 05:45:12;;;;;;;2.83;2.25;;;;;;;;;;5052945;28;20025;-53
2023/06/18 05:47:38;;;;;;;2.92;2.30;;;;;;;;;;5053016;28;20029;-56
2023/06/18 05:50:04;;;;;;;3.72;2.58;;;;;;;;;;5053191;28;20036;-59
2023/06/18 05:52:29;;;;;;;3.55;2.47;;;;;;;;;;5053097;28;20021;-62
2023/06/18 05:54:55;;;;;;;3.67;2.05;;;;;;;;;;5052817;28;20497;-61
2023/06/18 05:57:20;;;;;;;2.47;2.08;;;;;;;;;;5053151;28;20021;-55
2023/06/18 05:59:48;;;;;;;2.88;2.00;;;;;;;;;;5052695;28;20036;-54
2023/06/18 06:02:13;;;;;;;2.30;2.10;;;;;;;;;;5052836;28;20024;-56
2023/06/18 06:04:39;;;;;;;3.30;2.50;;;;;;;;;;5052279;28;20469;-53
2023/06/18 06:07:04;;;;;;;3.53;2.08;;;;;;;;;;5052629;28;20560;-57
2023/06/18 06:09:30;;;;;;;2.42;2.22;;;;;;;;;;5052804;28;20029;-56
2023/06/18 06:11:56;;;;;;;2.55;2.08;;;;;;;;;;5052847;28;20029;-60
2023/06/18 06:14:22;;;;;;;3.58;2.00;;;;;;;;;;5052391;28;20037;-58
2023/06/18 06:16:48;;;;;;;3.78;2.45;;;;;;;;;;5052580;28;20029;-57
2023/06/18 06:19:13;;;;;;;3.20;2.17;;;;;;;;;;5052394;28;20032;-55
2023/06/18 06:21:39;;;;;;;2.05;1.95;;;;;;;;;;5052502;28;20029;-57
2023/06/18 06:24:06;;;;;;;3.35;2.03;;;;;;;;;;5052657;28;20096;-57
2023/06/18 06:26:31;;;;;;;2.40;2.08;;;;;;;;;;5052102;28;20025;-55
2023/06/18 06:28:57;;;;;;;2.58;2.00;;;;;;;;;;5052629;28;20036;-56
2023/06/18 06:31:22;;;;;;;2.28;2.08;;;;;;;;;;5052419;28;20465;-56
2023/06/18 06:33:48;;;;;;;2.50;2.13;;;;;;;;;;5052153;28;20481;-61
2023/06/18 06:36:15;;;;;;;3.00;2.13;;;;;;;;;;5052320;28;20045;-62
2023/06/18 06:38:41;;;;;;;2.38;2.15;;;;;;;;;;5052227;28;20032;-65
2023/06/18 06:41:06;;;;;;;2.28;2.08;;;;;;;;;;5050979;28;20029;-57
2023/06/18 06:43:32;;;;;;;2.25;1.98;;;;;;;;;;5052140;28;20025;-57
2023/06/18 06:45:57;;;;;;;3.53;2.03;;;;;;;;;;5052145;28;20180;-57
2023/06/18 06:48:23;;;;;;;2.10;2.00;;;;;;;;;;5052172;28;20029;-58
2023/06/18 06:50:49;;;;;;;3.97;2.20;;;;;;;;;;5052495;28;20540;-55
2023/06/18 06:53:14;;;;;;;2.03;1.80;;;;;;;;;;5051921;28;20393;-61
2023/06/18 06:55:40;;;;;;;2.75;2.20;;;;;;;;;;5052086;28;20024;-57
2023/06/18 06:58:05;;;;;;;2.42;1.92;;;;;;;;;;5052316;28;20107;-56
2023/06/18 07:00:31;;;;;;;3.10;2.00;;;;;;;;;;5052102;28;20171;-56
2023/06/18 07:02:56;;;;;;;2.10;1.90;;;;;;;;;;5052252;28;20544;-56
2023/06/18 07:05:22;;;;;;;2.15;1.92;;;;;;;;;;5052310;28;20522;-57
2023/06/18 07:07:48;;;;;;;2.55;1.92;;;;;;;;;;5051935;28;20515;-60
2023/06/18 07:10:13;;;;;;;2.22;2.00;;;;;;;;;;5052067;28;20025;-59
2023/06/18 07:12:39;;;;;;;2.00;1.90;;;;;;;;;;5051885;28;20013;-55
2023/06/18 07:15:05;;;;;;;3.00;2.60;;;;;;;;;;5052019;28;20033;-57
2023/06/18 07:17:30;;;;;;;2.70;2.22;;;;;;;;;;5055174;28;20025;-56
2023/06/18 07:19:56;;;;;;;3.85;2.15;;;;;;;;;;5055774;28;20108;-57
2023/06/18 07:22:22;;;;;;;2.53;2.15;;;;;;;;;;5055964;28;20092;-57
2023/06/18 07:24:47;;;;;;;2.80;1.92;;;;;;;;;;5049088;28;20387;-58
2023/06/18 07:27:14;;;;;;;3.38;2.35;;;;;;;;;;5054960;28;20031;-56
2023/06/18 07:29:40;;;;;;;2.00;1.90;;;;;;;;;;5055516;28;20025;-55
2023/06/18 07:32:06;;;;;;;3.05;2.08;;;;;;;;;;5053779;28;20193;-67
2023/06/18 07:34:31;;;;;;;2.10;1.90;;;;;;;;;;5048593;28;20033;-71
2023/06/18 07:36:57;;;;;;;1.90;1.80;;;;;;;;;;5053367;28;20029;-60
2023/06/18 07:39:22;;;;;;;2.15;1.95;;;;;;;;;;5055210;28;20017;-54
2023/06/18 07:41:49;;;;;;;2.80;2.30;;;;;;;;;;5055357;28;20103;-55
2023/06/18 07:44:15;;;;;;;2.38;2.10;;;;;;;;;;5055307;28;20032;-55
2023/06/18 07:46:42;;;;;;;2.42;2.22;;;;;;;;;;5055559;28;20032;-56
2023/06/18 07:49:08;;;;;;;4.22;2.40;;;;;;;;;;5053049;28;20029;-65
2023/06/18 07:51:34;;;;;;;1.98;1.83;;;;;;;;;;5054559;28;20024;-70
2023/06/18 07:54:00;;;;;;;2.25;1.98;;;;;;;;;;5053854;28;20027;-59
2023/06/18 07:56:26;;;;;;;5.90;2.15;;;;;;;;;;5049197;28;20392;-55
2023/06/18 07:58:52;;;;;;;2.42;2.03;;;;;;;;;;5053024;28;20028;-56
2023/06/18 08:01:19;;;;;;;3.50;2.28;;;;;;;;;;5052498;28;20092;-57
2023/06/18 08:03:44;;;;;;;2.97;2.00;;;;;;;;;;5052835;28;20531;-66
2023/06/18 08:06:10;;;;;;;2.42;2.13;;;;;;;;;;5052567;28;20028;-59
2023/06/18 08:08:36;;;;;;;2.72;2.20;;;;;;;;;;5053278;28;20083;-58
2023/06/18 08:11:01;;;;;;;2.42;1.98;;;;;;;;;;5053064;28;20029;-56
2023/06/18 08:13:27;;;;;;;2.08;1.88;;;;;;;;;;5052984;28;20051;-56
2023/06/18 08:15:52;;;;;;;2.33;2.10;;;;;;;;;;5053092;28;20025;-57
2023/06/18 08:18:18;;;;;;;3.15;2.25;;;;;;;;;;5052979;28;20056;-58
2023/06/18 08:20:44;;;;;;;2.60;2.00;;;;;;;;;;5052069;28;20489;-59
2023/06/18 08:23:09;;;;;;;3.60;2.20;;;;;;;;;;5053008;28;20112;-55
2023/06/18 08:25:35;;;;;;;7.20;2.20;;;;;;;;;;5053181;28;20107;-57
2023/06/18 08:28:01;;;;;;;14.52;3.00;;;;;;;;;;5050261;28;20028;-58
2023/06/18 08:30:27;;;;;;;11.55;3.17;;;;;;;;;;5052606;28;20036;-55
2023/06/18 08:32:56;;;;;;;6.88;2.80;;;;;;;;;;5046421;28;20138;-56
2023/06/18 08:35:22;;;;;;;6.45;3.03;;;;;;;;;;5049331;28;20851;-57
2023/06/18 08:37:47;;;;;;;7.97;2.95;;;;;;;;;;5049345;28;20503;-65
2023/06/18 08:40:14;;;;;;;5.88;3.65;;;;;;;;;;5052345;28;20068;-52
2023/06/18 08:42:40;;;;;;;4.45;2.72;;;;;;;;;;5052587;28;20032;-58
2023/06/18 08:45:07;;;;;;;5.35;2.85;;;;;;;;;;5052282;28;20021;-67
2023/06/18 08:47:33;;;;;;;6.85;3.00;;;;;;;;;;5052604;28;20060;-57
2023/06/18 08:49:59;;;;;;;4.70;2.97;;;;;;;;;;5051275;28;20032;-57
2023/06/18 08:52:29;;;;;;;6.05;2.58;;;;;;;;;;5052430;28;20041;-58
2023/06/18 08:55:07;;;;;;;5.60;2.72;;;;;;;;;;5044188;28;20041;-54
2023/06/18 08:57:45;;;;;;;5.50;3.00;;;;;;;;;;5032533;28;20489;-56
2023/06/18 09:00:11;;;;;;;8.27;3.15;;;;;;;;;;5045749;28;20036;-59
2023/06/18 09:02:37;;;;;;;6.75;3.45;;;;;;;;;;5050881;28;20124;-64
2023/06/18 09:05:04;;;;;;;8.38;3.65;;;;;;;;;;5052273;28;20520;-60
2023/06/18 09:07:30;;;;;;;7.50;3.05;;;;;;;;;;5052051;28;20033;-59
2023/06/18 09:09:57;;;;;;;6.13;3.38;;;;;;;;;;5052148;28;20027;-59
2023/06/18 09:12:23;;;;;;;4.47;3.00;;;;;;;;;;5051726;28;20025;-61
2023/06/18 09:14:49;;;;;;;10.80;3.53;;;;;;;;;;5051421;28;20025;-62
2023/06/18 09:17:16;;;;;;;6.47;3.10;;;;;;;;;;5051846;28;20039;-59
2023/06/18 09:19:42;;;;;;;6.72;3.53;;;;;;;;;;5051960;28;20033;-60
2023/06/18 09:22:15;;;;;;;6.38;3.13;;;;;;;;;;5051940;28;20025;-59
2023/06/18 09:24:41;;;;;;;4.65;3.15;;;;;;;;;;5051846;28;20480;-59
2023/06/18 09:27:07;;;;;;;6.47;3.17;;;;;;;;;;5052011;28;20094;-59
2023/06/18 09:29:34;;;;;;;7.20;3.42;;;;;;;;;;5051616;28;20503;-60
2023/06/18 09:32:08;;;;;;;5.97;3.50;;;;;;;;;;5051618;28;20158;-60
2023/06/18 09:34:34;;;;;;;7.22;3.00;;;;;;;;;;5051533;28;20481;-61
2023/06/18 09:36:59;;;;;;;5.60;3.00;;;;;;;;;;5051848;28;20035;-60
2023/06/18 09:39:26;;;;;;;5.38;3.22;;;;;;;;;;5049349;28;20037;-60
2023/06/18 09:41:55;;;;;;;5.97;3.10;;;;;;;;;;5051031;28;20094;-60
2023/06/18 09:44:22;;;;;;;5.18;2.85;;;;;;;;;;5050966;28;20021;-60
2023/06/18 09:46:58;;;;;;;4.40;2.83;;;;;;;;;;5047892;28;20044;-61
2023/06/18 09:49:27;;;;;;;5.57;3.45;;;;;;;;;;5050050;28;20112;-61
2023/06/18 09:51:53;;;;;;;5.78;2.92;;;;;;;;;;5050080;28;20029;-63
2023/06/18 09:54:20;;;;;;;6.55;3.03;;;;;;;;;;5050915;28;20032;-60
2023/06/18 09:56:59;;;;;;;4.25;2.90;;;;;;;;;;5050763;28;20029;-62
2023/06/18 09:59:26;;;;;;;9.63;3.10;;;;;;;;;;5051573;28;20029;-61
2023/06/18 10:01:52;;;;;;;4.40;3.00;;;;;;;;;;5051069;28;20021;-60
2023/06/18 10:04:18;;;;;;;6.63;3.30;;;;;;;;;;5051099;28;20032;-61
2023/06/18 10:06:51;;;;;;;4.63;2.90;;;;;;;;;;5049718;28;20035;-60
2023/06/18 10:09:20;;;;;;;7.28;3.15;;;;;;;;;;5051420;28;20029;-61
2023/06/18 10:11:51;;;;;;;9.52;3.28;;;;;;;;;;5051043;28;20384;-61
2023/06/18 10:14:23;;;;;;;9.82;3.05;;;;;;;;;;5050956;28;20083;-60
2023/06/18 10:16:51;;;;;;;16.23;3.70;;;;;;;;;;5051185;28;20033;-62
2023/06/18 10:19:24;;;;;;;10.15;3.00;;;;;;;;;;5051224;28;20381;-62
2023/06/18 10:21:59;;;;;;;10.38;3.05;;;;;;;;;;5050857;28;20029;-61
2023/06/18 10:24:41;;;;;;;5.10;2.53;;;;;;;;;;5051119;28;20029;-62
2023/06/18 10:27:07;;;;;;;11.52;2.88;;;;;;;;;;5050797;28;20078;-63
2023/06/18 10:29:34;;;;;;;6.90;2.92;;;;;;;;;;5051035;28;20025;-60
2023/06/18 10:32:04;;;;;;;5.53;2.83;;;;;;;;;;5050522;28;20113;-59
2023/06/18 10:34:31;;;;;;;11.80;3.50;;;;;;;;;;5050609;28;20504;-62
2023/06/18 10:36:58;;;;;;;5.88;2.80;;;;;;;;;;5050660;28;20032;-62
2023/06/18 10:39:24;;;;;;;11.35;3.30;;;;;;;;;;5050528;28;20509;-62
2023/06/18 10:41:52;;;;;;;14.32;3.67;;;;;;;;;;5050654;28;20155;-60
2023/06/18 10:44:33;;;;;;;8.15;2.88;;;;;;;;;;5050564;28;20036;-61
2023/06/18 10:47:22;;;;;;;10.77;3.00;;;;;;;;;;5050577;28;20035;-61
2023/06/18 10:50:02;;;;;;;11.02;3.17;;;;;;;;;;5050616;28;20033;-63
2023/06/18 10:52:32;;;;;;;12.73;3.65;;;;;;;;;;5054114;28;20040;-61
2023/06/18 10:55:16;;;;;;;13.25;3.40;;;;;;;;;;5054584;28;20120;-62
2023/06/18 10:57:47;;;;;;;5.72;2.53;;;;;;;;;;5054762;28;20480;-62
2023/06/18 11:00:19;;;;;;;19.52;2.95;;;;;;;;;;5054594;28;20041;-62
2023/06/18 11:02:47;;;;;;;12.25;2.95;;;;;;;;;;5054536;28;20028;-62
2023/06/18 11:05:31;;;;;;;17.60;3.60;;;;;;;;;;5054418;28;20461;-60
2023/06/18 11:08:07;;;;;;;21.05;4.15;;;;;;;;;;5054501;28;20052;-60
2023/06/18 11:10:36;;;;;;;18.02;3.35;;;;;;;;;;5054396;28;20039;-62
2023/06/18 11:13:09;;;;;;;20.63;3.15;;;;;;;;;;5054172;28;20037;-61
2023/06/18 11:15:58;;;;;;;22.40;3.10;;;;;;;;;;5048635;28;20112;-60
2023/06/18 11:18:26;;;;;;;15.40;3.05;;;;;;;;;;5034633;28;20390;-61
2023/06/18 11:20:54;;;;;;;10.07;2.70;;;;;;;;;;5034260;28;20501;-62
2023/06/18 11:23:21;;;;;;;15.98;3.65;;;;;;;;;;5034075;28;20032;-62
2023/06/18 11:25:47;;;;;;;7.25;2.83;;;;;;;;;;5034506;28;20489;-62
2023/06/18 11:28:13;;;;;;;17.63;3.10;;;;;;;;;;5034234;28;20025;-63
2023/06/18 11:30:46;;;;;;;15.32;2.97;;;;;;;;;;5034148;28;20032;-61
2023/06/18 11:33:11;;;;;;;17.08;3.30;;;;;;;;;;5033883;28;20497;-62
2023/06/18 11:35:37;;;;;;;15.25;2.80;;;;;;;;;;5034324;28;20040;-62
2023/06/18 11:38:04;;;;;;;18.95;3.78;;;;;;;;;;5033803;28;20397;-61
2023/06/18 11:40:29;;;;;;;19.20;3.15;;;;;;;;;;5034017;28;20100;-62
2023/06/18 11:42:55;;;;;;;16.40;4.07;;;;;;;;;;5034029;28;20440;-63
2023/06/18 11:45:21;;;;;;;9.32;3.50;;;;;;;;;;5033882;28;20509;-63
2023/06/18 11:47:50;;;;;;;20.42;3.40;;;;;;;;;;5033817;28;20037;-62
2023/06/18 11:50:19;;;;;;;15.50;3.25;;;;;;;;;;5033727;28;20140;-63
2023/06/18 11:52:45;;;;;;;14.43;3.50;;;;;;;;;;5033605;28;20067;-62
2023/06/18 11:55:10;;;;;;;11.82;3.30;;;;;;;;;;5033555;28;20105;-62
2023/06/18 11:57:36;;;;;;;15.27;3.50;;;;;;;;;;5015884;28;20025;-62
2023/06/18 12:00:08;;;;;;;14.45;3.58;;;;;;;;;;5033502;28;20367;-62
2023/06/18 12:02:36;;;;;;;13.02;3.17;;;;;;;;;;5032759;28;20037;-63
2023/06/18 12:05:02;;;;;;;10.43;3.05;;;;;;;;;;5033350;28;20499;-63
2023/06/18 12:07:29;;;;;;;16.35;4.20;;;;;;;;;;5033355;28;20037;-63
2023/06/18 12:09:57;;;;;;;15.15;3.05;;;;;;;;;;5033431;28;20658;-63
2023/06/18 12:12:22;;;;;;;14.88;3.10;;;;;;;;;;5033247;28;20029;-62
2023/06/18 12:15:20;;;;;;;14.18;3.38;;;;;;;;;;5033249;28;20041;-63
2023/06/18 12:17:58;;;;;;;13.48;2.80;;;;;;;;;;5033286;28;20036;-63
2023/06/18 12:20:25;;;;;;;22.13;3.67;;;;;;;;;;5033207;28;20025;-63
2023/06/18 12:22:51;;;;;;;16.65;3.67;;;;;;;;;;5033032;28;20053;-65
2023/06/18 12:25:21;;;;;;;13.82;3.13;;;;;;;;;;5052678;28;20064;-63
2023/06/18 12:27:49;;;;;;;15.73;3.22;;;;;;;;;;5051603;28;20021;-62
2023/06/18 12:30:15;;;;;;;24.50;3.58;;;;;;;;;;5053294;28;20039;-61
2023/06/18 12:32:40;;;;;;;20.67;3.50;;;;;;;;;;5052698;28;20479;-61
2023/06/18 12:35:17;;;;;;;17.38;3.63;;;;;;;;;;5053202;28;20108;-60
2023/06/18 12:37:46;;;;;;;12.40;3.45;;;;;;;;;;5052872;28;20053;-61
2023/06/18 12:40:14;;;;;;;9.10;3.23;;;;;;;;;;5052657;28;20052;-63
2023/06/18 12:42:41;;;;;;;16.55;3.40;;;;;;;;;;5052739;28;20057;-63
2023/06/18 12:45:07;;;;;;;9.98;3.08;;;;;;;;;;5052907;28;20114;-61
2023/06/18 12:47:38;;;;;;;27.38;4.05;;;;;;;;;;5052596;28;20441;-59
2023/06/18 12:50:05;;;;;;;59.42;6.68;;;;;;;;;;5052637;28;20086;-63
2023/06/18 12:52:31;;;;;;;17.58;3.50;;;;;;;;;;5052592;28;20476;-61
2023/06/18 12:54:59;;;;;;;16.00;6.18;;;;;;;;;;5037318;28;20128;-62
2023/06/18 12:57:28;;;;;;;21.25;5.97;;;;;;;;;;5032594;28;20049;-59
2023/06/18 12:59:55;;;;;;;15.87;6.30;;;;;;;;;;5032393;28;20029;-63
2023/06/18 13:02:21;;;;;;;11.10;5.55;;;;;;;;;;5032451;28;20281;-62
2023/06/18 13:04:47;;;;;;;24.90;6.10;;;;;;;;;;5032224;28;20021;-61
2023/06/18 13:07:12;;;;;;;22.52;6.25;;;;;;;;;;5032461;28;20079;-61
2023/06/18 13:09:40;;;;;;;20.17;6.00;;;;;;;;;;5032226;28;20034;-62
2023/06/18 13:12:07;;;;;;;17.58;6.03;;;;;;;;;;5032207;28;20038;-61
2023/06/18 13:14:33;;;;;;;15.25;6.05;;;;;;;;;;5031960;28;20036;-62
2023/06/18 13:17:01;;;;;;;20.10;6.18;;;;;;;;;;5037283;28;20033;-62
2023/06/18 13:19:32;;;;;;;31.83;7.72;;;;;;;;;;5053498;28;20091;-61
2023/06/18 13:21:59;;;;;;;14.48;6.57;;;;;;;;;;5039362;28;20730;-59
2023/06/18 13:24:26;;;;;;;16.85;6.32;;;;;;;;;;5034272;28;20033;-61
2023/06/18 13:26:52;;;;;;;19.52;6.35;;;;;;;;;;5050343;28;20556;-61
2023/06/18 13:29:17;;;;;;;13.88;5.90;;;;;;;;;;5051451;28;20029;-61
2023/06/18 13:31:43;;;;;;;13.02;6.00;;;;;;;;;;5051437;28;20098;-59
2023/06/18 13:34:08;;;;;;;16.60;6.40;;;;;;;;;;5052589;28;20029;-60
2023/06/18 13:36:35;;;;;;;19.83;6.07;;;;;;;;;;5052546;28;20078;-60
2023/06/18 13:39:01;;;;;;;18.27;5.63;;;;;;;;;;5052589;28;20037;-61
2023/06/18 13:41:27;;;;;;;13.90;6.18;;;;;;;;;;5052664;28;20108;-59
2023/06/18 13:43:53;;;;;;;18.42;6.30;;;;;;;;;;5052713;28;20120;-59
2023/06/18 13:46:18;;;;;;;13.85;5.80;;;;;;;;;;5052816;28;20017;-58
2023/06/18 13:48:44;;;;;;;20.35;6.20;;;;;;;;;;5051795;28;20064;-59
2023/06/18 13:51:09;;;;;;;14.40;5.65;;;;;;;;;;5052992;28;20032;-58
2023/06/18 13:53:35;;;;;;;12.88;5.90;;;;;;;;;;5052831;28;20128;-60
2023/06/18 13:56:02;;;;;;;14.60;6.22;;;;;;;;;;5052946;28;20032;-59
2023/06/18 13:58:28;;;;;;;14.82;5.88;;;;;;;;;;5052885;28;20083;-59
2023/06/18 14:00:56;;;;;;;12.43;5.57;;;;;;;;;;5052887;28;20500;-60
2023/06/18 14:03:22;;;;;;;12.90;5.80;;;;;;;;;;5052756;28;20036;-58
2023/06/18 14:05:47;;;;;;;16.88;5.85;;;;;;;;;;5052784;28;20032;-59
2023/06/18 14:08:13;;;;;;;17.05;5.60;;;;;;;;;;5052762;28;20052;-59
2023/06/18 14:10:38;;;;;;;9.65;5.78;;;;;;;;;;5052704;28;20481;-58
2023/06/18 14:13:04;;;;;;;13.30;5.88;;;;;;;;;;5052520;28;20065;-58
2023/06/18 14:15:31;;;;;;;14.23;5.45;;;;;;;;;;5052549;28;20029;-59
2023/06/18 14:17:56;;;;;;;13.23;5.63;;;;;;;;;;5051260;28;20035;-60
2023/06/18 14:20:22;;;;;;;15.68;6.00;;;;;;;;;;5051360;28;20115;-59
2023/06/18 14:22:49;;;;;;;13.88;6.05;;;;;;;;;;5051479;28;20033;-58
2023/06/18 14:25:15;;;;;;;15.35;6.03;;;;;;;;;;5052142;28;20434;-59
2023/06/18 14:27:41;;;;;;;13.00;5.65;;;;;;;;;;5052285;28;20090;-58
2023/06/18 14:30:07;;;;;;;11.07;5.60;;;;;;;;;;5052418;28;20385;-59
2023/06/18 14:32:33;;;;;;;11.85;5.43;;;;;;;;;;5052197;28;20056;-59
2023/06/18 14:35:00;;;;;;;11.90;6.07;;;;;;;;;;5052576;28;20021;-59
2023/06/18 14:37:26;;;;;;;12.25;5.65;;;;;;;;;;5052259;28;20358;-59
2023/06/18 14:39:51;;;;;;;15.80;5.50;;;;;;;;;;5051073;28;20031;-59
2023/06/18 14:42:17;;;;;;;12.90;5.68;;;;;;;;;;5052291;28;20035;-59
2023/06/18 14:44:42;;;;;;;11.13;5.28;;;;;;;;;;5052573;28;20021;-58
2023/06/18 14:47:08;;;;;;;9.10;5.57;;;;;;;;;;5050954;28;20384;-59
2023/06/18 14:49:37;;;;;;;8.00;5.30;;;;;;;;;;5052164;28;20027;-58
2023/06/18 14:52:03;;;;;;;11.15;5.72;;;;;;;;;;5052162;28;20025;-59
2023/06/18 14:54:28;;;;;;;10.23;5.68;;;;;;;;;;5052359;28;20029;-58
2023/06/18 14:56:54;;;;;;;11.20;5.70;;;;;;;;;;5052041;28;20028;-58
2023/06/18 14:59:20;;;;;;;12.07;5.32;;;;;;;;;;5052202;28;20045;-59
2023/06/18 15:01:45;;;;;;;13.20;6.05;;;;;;;;;;5050705;28;20021;-59
2023/06/18 15:04:11;;;;;;;11.45;5.55;;;;;;;;;;5052361;28;20021;-59
2023/06/18 15:06:38;;;;;;;15.73;5.50;;;;;;;;;;5052299;28;20022;-58
2023/06/18 15:09:05;;;;;;;14.52;5.43;;;;;;;;;;5051930;28;20171;-58
2023/06/18 15:11:31;;;;;;;5.85;4.68;;;;;;;;;;5052223;28;20021;-59